sensor_id;sensor_type;location;lat;lon;timestamp;temperature;humidity
18365;DHT22;9309;52.126;11.616;2023-11-19T00:01:31;4.90;96.20
18365;DHT22;9309;52.126;11.616;2023-11-19T00:04:00;5.00;96.20
18365;DHT22;9309;52.126;11.616;2023-11-19T00:06:26;4.90;96.30
18365;DHT22;9309;52.126;11.616;2023-11-19T00:08:53;4.90;96.70
18365;DHT22;9309;52.126;11.616;2023-11-19T00:11:18;4.90;96.90
18365;DHT22;9309;52.126;11.616;2023-11-19T00:13:45;4.90;96.90
18365;DHT22;9309;52.126;11.616;2023-11-19T00:16:12;4.90;97.00
18365;DHT22;9309;52.126;11.616;2023-11-19T00:18:38;4.90;97.10
18365;DHT22;9309;52.126;11.616;2023-11-19T00:21:06;4.90;97.20
18365;DHT22;9309;52.126;11.616;2023-11-19T00:23:35;4.90;96.90
18365;DHT22;9309;52.126;11.616;2023-11-19T00:26:02;4.90;96.90
18365;DHT22;9309;52.126;11.616;2023-11-19T00:28:31;4.90;96.70
18365;DHT22;9309;52.126;11.616;2023-11-19T00:30:58;4.90;96.70
18365;DHT22;9309;52.126;11.616;2023-11-19T00:33:25;4.90;96.50
18365;DHT22;9309;52.126;11.616;2023-11-19T00:35:51;4.90;96.20
18365;DHT22;9309;52.126;11.616;2023-11-19T00:38:19;4.90;96.30
18365;DHT22;9309;52.126;11.616;2023-11-19T00:40:45;5.00;96.40
18365;DHT22;9309;52.126;11.616;2023-11-19T00:43:12;4.90;96.50
18365;DHT22;9309;52.126;11.616;2023-11-19T00:45:39;4.90;96.40
18365;DHT22;9309;52.126;11.616;2023-11-19T00:48:05;4.90;96.50
18365;DHT22;9309;52.126;11.616;2023-11-19T00:50:32;4.90;96.60
18365;DHT22;9309;52.126;11.616;2023-11-19T00:52:59;4.90;96.60
18365;DHT22;9309;52.126;11.616;2023-11-19T00:55:27;4.90;96.80
18365;DHT22;9309;52.126;11.616;2023-11-19T00:57:54;4.90;96.90
18365;DHT22;9309;52.126;11.616;2023-11-19T01:00:21;4.90;97.00
18365;DHT22;9309;52.126;11.616;2023-11-19T01:02:49;4.90;96.80
18365;DHT22;9309;52.126;11.616;2023-11-19T01:05:16;4.90;96.70
18365;DHT22;9309;52.126;11.616;2023-11-19T01:07:46;4.90;96.40
18365;DHT22;9309;52.126;11.616;2023-11-19T01:10:13;4.90;96.30
18365;DHT22;9309;52.126;11.616;2023-11-19T01:12:42;4.90;96.10
18365;DHT22;9309;52.126;11.616;2023-11-19T01:15:09;4.90;96.20
18365;DHT22;9309;52.126;11.616;2023-11-19T01:17:36;4.90;95.90
18365;DHT22;9309;52.126;11.616;2023-11-19T01:20:03;4.90;96.10
18365;DHT22;9309;52.126;11.616;2023-11-19T01:22:32;5.00;96.00
18365;DHT22;9309;52.126;11.616;2023-11-19T01:24:59;5.00;96.00
18365;DHT22;9309;52.126;11.616;2023-11-19T01:27:26;5.00;96.10
18365;DHT22;9309;52.126;11.616;2023-11-19T01:29:54;4.90;95.80
18365;DHT22;9309;52.126;11.616;2023-11-19T01:32:21;4.90;95.90
18365;DHT22;9309;52.126;11.616;2023-11-19T01:34:49;4.90;95.90
18365;DHT22;9309;52.126;11.616;2023-11-19T01:37:16;4.90;96.00
18365;DHT22;9309;52.126;11.616;2023-11-19T01:39:43;4.90;96.20
18365;DHT22;9309;52.126;11.616;2023-11-19T01:42:10;4.90;95.80
18365;DHT22;9309;52.126;11.616;2023-11-19T01:44:37;5.00;95.90
18365;DHT22;9309;52.126;11.616;2023-11-19T01:47:05;5.00;95.80
18365;DHT22;9309;52.126;11.616;2023-11-19T01:49:32;5.00;95.60
18365;DHT22;9309;52.126;11.616;2023-11-19T01:51:59;5.00;95.70
18365;DHT22;9309;52.126;11.616;2023-11-19T01:54:26;5.00;95.60
18365;DHT22;9309;52.126;11.616;2023-11-19T01:56:54;5.00;95.60
18365;DHT22;9309;52.126;11.616;2023-11-19T01:59:23;5.00;95.80
18365;DHT22;9309;52.126;11.616;2023-11-19T02:01:52;5.00;96.00
18365;DHT22;9309;52.126;11.616;2023-11-19T02:04:20;5.00;96.10
18365;DHT22;9309;52.126;11.616;2023-11-19T02:06:47;5.00;96.30
18365;DHT22;9309;52.126;11.616;2023-11-19T02:09:15;5.00;96.20
18365;DHT22;9309;52.126;11.616;2023-11-19T02:11:44;5.00;96.20
18365;DHT22;9309;52.126;11.616;2023-11-19T02:14:14;5.00;96.10
18365;DHT22;9309;52.126;11.616;2023-11-19T02:16:41;5.00;96.20
18365;DHT22;9309;52.126;11.616;2023-11-19T02:19:07;4.90;96.10
18365;DHT22;9309;52.126;11.616;2023-11-19T02:21:37;5.00;96.20
18365;DHT22;9309;52.126;11.616;2023-11-19T02:24:04;5.00;96.10
18365;DHT22;9309;52.126;11.616;2023-11-19T02:26:33;5.00;96.20
18365;DHT22;9309;52.126;11.616;2023-11-19T02:29:03;5.00;96.20
18365;DHT22;9309;52.126;11.616;2023-11-19T02:31:32;5.00;96.20
18365;DHT22;9309;52.126;11.616;2023-11-19T02:34:00;5.00;96.00
18365;DHT22;9309;52.126;11.616;2023-11-19T02:36:27;5.10;96.00
18365;DHT22;9309;52.126;11.616;2023-11-19T02:38:54;5.10;96.00
18365;DHT22;9309;52.126;11.616;2023-11-19T02:41:21;5.10;95.90
18365;DHT22;9309;52.126;11.616;2023-11-19T02:43:47;5.10;95.90
18365;DHT22;9309;52.126;11.616;2023-11-19T02:46:15;5.10;95.90
18365;DHT22;9309;52.126;11.616;2023-11-19T02:48:43;5.10;95.90
18365;DHT22;9309;52.126;11.616;2023-11-19T02:51:09;5.10;95.90
18365;DHT22;9309;52.126;11.616;2023-11-19T02:53:36;5.10;96.00
18365;DHT22;9309;52.126;11.616;2023-11-19T02:56:05;5.10;96.10
18365;DHT22;9309;52.126;11.616;2023-11-19T02:58:42;5.10;96.10
18365;DHT22;9309;52.126;11.616;2023-11-19T03:01:10;5.10;96.30
18365;DHT22;9309;52.126;11.616;2023-11-19T03:03:46;5.10;96.40
18365;DHT22;9309;52.126;11.616;2023-11-19T03:06:14;5.10;96.60
18365;DHT22;9309;52.126;11.616;2023-11-19T03:08:41;5.10;96.60
18365;DHT22;9309;52.126;11.616;2023-11-19T03:11:08;5.10;96.80
18365;DHT22;9309;52.126;11.616;2023-11-19T03:13:34;5.10;97.10
18365;DHT22;9309;52.126;11.616;2023-11-19T03:16:01;5.10;97.10
18365;DHT22;9309;52.126;11.616;2023-11-19T03:18:28;5.20;97.00
18365;DHT22;9309;52.126;11.616;2023-11-19T03:20:55;5.20;96.90
18365;DHT22;9309;52.126;11.616;2023-11-19T03:23:23;5.20;97.00
18365;DHT22;9309;52.126;11.616;2023-11-19T03:25:53;5.10;97.10
18365;DHT22;9309;52.126;11.616;2023-11-19T03:28:21;5.20;97.20
18365;DHT22;9309;52.126;11.616;2023-11-19T03:30:47;5.20;97.20
18365;DHT22;9309;52.126;11.616;2023-11-19T03:33:15;5.20;97.50
18365;DHT22;9309;52.126;11.616;2023-11-19T03:35:41;5.20;97.50
18365;DHT22;9309;52.126;11.616;2023-11-19T03:38:09;5.30;97.30
18365;DHT22;9309;52.126;11.616;2023-11-19T03:40:36;5.30;97.20
18365;DHT22;9309;52.126;11.616;2023-11-19T03:43:04;5.40;97.30
18365;DHT22;9309;52.126;11.616;2023-11-19T03:45:31;5.40;97.20
18365;DHT22;9309;52.126;11.616;2023-11-19T03:47:57;5.50;97.00
18365;DHT22;9309;52.126;11.616;2023-11-19T03:50:24;5.50;96.70
18365;DHT22;9309;52.126;11.616;2023-11-19T03:52:51;5.60;96.60
18365;DHT22;9309;52.126;11.616;2023-11-19T03:55:20;5.60;96.30
18365;DHT22;9309;52.126;11.616;2023-11-19T03:57:46;5.60;96.50
18365;DHT22;9309;52.126;11.616;2023-11-19T04:00:14;5.60;96.90
18365;DHT22;9309;52.126;11.616;2023-11-19T04:02:41;5.70;97.10
18365;DHT22;9309;52.126;11.616;2023-11-19T04:05:08;5.70;96.80
18365;DHT22;9309;52.126;11.616;2023-11-19T04:07:35;5.60;97.00
18365;DHT22;9309;52.126;11.616;2023-11-19T04:10:01;5.60;97.40
18365;DHT22;9309;52.126;11.616;2023-11-19T04:12:29;5.60;97.80
18365;DHT22;9309;52.126;11.616;2023-11-19T04:14:56;5.60;98.20
18365;DHT22;9309;52.126;11.616;2023-11-19T04:17:22;5.70;98.40
18365;DHT22;9309;52.126;11.616;2023-11-19T04:19:50;5.70;98.40
18365;DHT22;9309;52.126;11.616;2023-11-19T04:22:16;5.70;98.30
18365;DHT22;9309;52.126;11.616;2023-11-19T04:24:44;5.70;98.40
18365;DHT22;9309;52.126;11.616;2023-11-19T04:27:11;5.80;98.50
18365;DHT22;9309;52.126;11.616;2023-11-19T04:29:40;5.80;98.50
18365;DHT22;9309;52.126;11.616;2023-11-19T04:32:07;6.00;98.40
18365;DHT22;9309;52.126;11.616;2023-11-19T04:34:34;6.00;98.20
18365;DHT22;9309;52.126;11.616;2023-11-19T04:37:01;6.00;98.20
18365;DHT22;9309;52.126;11.616;2023-11-19T04:39:28;6.10;98.30
18365;DHT22;9309;52.126;11.616;2023-11-19T04:41:55;6.10;98.30
18365;DHT22;9309;52.126;11.616;2023-11-19T04:44:22;6.10;98.20
18365;DHT22;9309;52.126;11.616;2023-11-19T04:46:50;6.10;98.20
18365;DHT22;9309;52.126;11.616;2023-11-19T04:49:16;6.10;98.50
18365;DHT22;9309;52.126;11.616;2023-11-19T04:51:44;6.10;98.70
18365;DHT22;9309;52.126;11.616;2023-11-19T04:54:12;6.20;98.90
18365;DHT22;9309;52.126;11.616;2023-11-19T04:56:39;6.20;98.90
18365;DHT22;9309;52.126;11.616;2023-11-19T04:59:06;6.20;99.10
18365;DHT22;9309;52.126;11.616;2023-11-19T05:01:33;6.30;98.90
18365;DHT22;9309;52.126;11.616;2023-11-19T05:04:01;6.30;98.70
18365;DHT22;9309;52.126;11.616;2023-11-19T05:06:28;6.40;98.70
18365;DHT22;9309;52.126;11.616;2023-11-19T05:08:55;6.40;98.60
18365;DHT22;9309;52.126;11.616;2023-11-19T05:11:21;6.50;98.80
18365;DHT22;9309;52.126;11.616;2023-11-19T05:13:48;6.60;98.30
18365;DHT22;9309;52.126;11.616;2023-11-19T05:16:15;6.60;98.50
18365;DHT22;9309;52.126;11.616;2023-11-19T05:18:42;6.60;98.50
18365;DHT22;9309;52.126;11.616;2023-11-19T05:21:10;6.70;98.50
18365;DHT22;9309;52.126;11.616;2023-11-19T05:23:37;6.80;98.30
18365;DHT22;9309;52.126;11.616;2023-11-19T05:26:04;6.80;98.30
18365;DHT22;9309;52.126;11.616;2023-11-19T05:28:31;6.80;98.50
18365;DHT22;9309;52.126;11.616;2023-11-19T05:30:58;7.00;98.40
18365;DHT22;9309;52.126;11.616;2023-11-19T05:33:24;7.20;97.60
18365;DHT22;9309;52.126;11.616;2023-11-19T05:35:51;7.40;97.30
18365;DHT22;9309;52.126;11.616;2023-11-19T05:38:19;7.60;96.40
18365;DHT22;9309;52.126;11.616;2023-11-19T05:40:46;7.60;95.40
18365;DHT22;9309;52.126;11.616;2023-11-19T05:43:13;7.80;95.10
18365;DHT22;9309;52.126;11.616;2023-11-19T05:45:40;7.90;94.50
18365;DHT22;9309;52.126;11.616;2023-11-19T05:48:07;8.00;94.00
18365;DHT22;9309;52.126;11.616;2023-11-19T05:50:34;8.10;93.10
18365;DHT22;9309;52.126;11.616;2023-11-19T05:53:01;8.20;92.50
18365;DHT22;9309;52.126;11.616;2023-11-19T05:55:33;8.30;92.30
18365;DHT22;9309;52.126;11.616;2023-11-19T05:57:59;8.40;91.90
18365;DHT22;9309;52.126;11.616;2023-11-19T06:00:26;8.40;91.90
18365;DHT22;9309;52.126;11.616;2023-11-19T06:02:52;8.40;91.40
18365;DHT22;9309;52.126;11.616;2023-11-19T06:05:19;8.40;91.60
18365;DHT22;9309;52.126;11.616;2023-11-19T06:07:46;8.40;91.50
18365;DHT22;9309;52.126;11.616;2023-11-19T06:10:13;8.40;91.20
18365;DHT22;9309;52.126;11.616;2023-11-19T06:12:44;8.40;91.30
18365;DHT22;9309;52.126;11.616;2023-11-19T06:15:11;8.40;91.50
18365;DHT22;9309;52.126;11.616;2023-11-19T06:17:38;8.50;91.50
18365;DHT22;9309;52.126;11.616;2023-11-19T06:20:06;8.50;91.20
18365;DHT22;9309;52.126;11.616;2023-11-19T06:22:33;8.60;91.10
18365;DHT22;9309;52.126;11.616;2023-11-19T06:25:00;8.60;90.80
18365;DHT22;9309;52.126;11.616;2023-11-19T06:27:26;8.60;90.80
18365;DHT22;9309;52.126;11.616;2023-11-19T06:29:55;8.70;90.60
18365;DHT22;9309;52.126;11.616;2023-11-19T06:32:21;8.70;90.50
18365;DHT22;9309;52.126;11.616;2023-11-19T06:34:48;8.60;90.50
18365;DHT22;9309;52.126;11.616;2023-11-19T06:37:15;8.60;90.70
18365;DHT22;9309;52.126;11.616;2023-11-19T06:39:41;8.50;91.10
18365;DHT22;9309;52.126;11.616;2023-11-19T06:42:08;8.50;90.90
18365;DHT22;9309;52.126;11.616;2023-11-19T06:44:34;8.40;91.40
18365;DHT22;9309;52.126;11.616;2023-11-19T06:47:02;8.50;91.00
18365;DHT22;9309;52.126;11.616;2023-11-19T06:49:29;8.50;90.70
18365;DHT22;9309;52.126;11.616;2023-11-19T06:51:56;8.50;90.80
18365;DHT22;9309;52.126;11.616;2023-11-19T06:54:22;8.40;91.00
18365;DHT22;9309;52.126;11.616;2023-11-19T06:56:49;8.40;91.20
18365;DHT22;9309;52.126;11.616;2023-11-19T06:59:15;8.40;91.30
18365;DHT22;9309;52.126;11.616;2023-11-19T07:01:42;8.40;91.30
18365;DHT22;9309;52.126;11.616;2023-11-19T07:04:11;8.30;91.60
18365;DHT22;9309;52.126;11.616;2023-11-19T07:06:38;8.40;92.10
18365;DHT22;9309;52.126;11.616;2023-11-19T07:09:06;8.40;92.00
18365;DHT22;9309;52.126;11.616;2023-11-19T07:11:35;8.50;92.30
18365;DHT22;9309;52.126;11.616;2023-11-19T07:14:04;8.60;91.70
18365;DHT22;9309;52.126;11.616;2023-11-19T07:16:31;8.50;91.40
18365;DHT22;9309;52.126;11.616;2023-11-19T07:18:58;8.50;92.20
18365;DHT22;9309;52.126;11.616;2023-11-19T07:21:26;8.50;91.90
18365;DHT22;9309;52.126;11.616;2023-11-19T07:23:54;8.60;91.90
18365;DHT22;9309;52.126;11.616;2023-11-19T07:26:21;8.70;91.20
18365;DHT22;9309;52.126;11.616;2023-11-19T07:28:47;8.80;91.00
18365;DHT22;9309;52.126;11.616;2023-11-19T07:31:14;9.00;90.50
18365;DHT22;9309;52.126;11.616;2023-11-19T07:33:40;9.10;90.00
18365;DHT22;9309;52.126;11.616;2023-11-19T07:36:08;9.20;89.60
18365;DHT22;9309;52.126;11.616;2023-11-19T07:38:36;9.10;89.70
18365;DHT22;9309;52.126;11.616;2023-11-19T07:41:03;9.20;89.20
18365;DHT22;9309;52.126;11.616;2023-11-19T07:43:30;9.10;90.60
18365;DHT22;9309;52.126;11.616;2023-11-19T07:45:57;9.20;89.90
18365;DHT22;9309;52.126;11.616;2023-11-19T07:48:24;9.40;89.90
18365;DHT22;9309;52.126;11.616;2023-11-19T07:50:51;9.60;87.80
18365;DHT22;9309;52.126;11.616;2023-11-19T07:53:18;9.70;88.50
18365;DHT22;9309;52.126;11.616;2023-11-19T07:55:46;10.00;87.00
18365;DHT22;9309;52.126;11.616;2023-11-19T07:58:13;10.00;86.90
18365;DHT22;9309;52.126;11.616;2023-11-19T08:00:39;10.20;86.70
18365;DHT22;9309;52.126;11.616;2023-11-19T08:03:06;10.80;85.20
18365;DHT22;9309;52.126;11.616;2023-11-19T08:05:33;11.60;81.70
18365;DHT22;9309;52.126;11.616;2023-11-19T08:08:00;12.50;77.00
18365;DHT22;9309;52.126;11.616;2023-11-19T08:10:27;12.80;76.20
18365;DHT22;9309;52.126;11.616;2023-11-19T08:12:55;12.80;75.20
18365;DHT22;9309;52.126;11.616;2023-11-19T08:15:22;12.40;76.50
18365;DHT22;9309;52.126;11.616;2023-11-19T08:17:48;12.00;77.80
18365;DHT22;9309;52.126;11.616;2023-11-19T08:20:15;11.60;79.70
18365;DHT22;9309;52.126;11.616;2023-11-19T08:22:42;11.50;80.40
18365;DHT22;9309;52.126;11.616;2023-11-19T08:25:08;11.40;80.60
18365;DHT22;9309;52.126;11.616;2023-11-19T08:27:35;11.40;81.30
18365;DHT22;9309;52.126;11.616;2023-11-19T08:30:03;11.20;82.10
18365;DHT22;9309;52.126;11.616;2023-11-19T08:32:31;11.10;82.70
18365;DHT22;9309;52.126;11.616;2023-11-19T08:34:58;11.10;82.60
18365;DHT22;9309;52.126;11.616;2023-11-19T08:37:24;11.20;82.30
18365;DHT22;9309;52.126;11.616;2023-11-19T08:39:51;11.20;82.60
18365;DHT22;9309;52.126;11.616;2023-11-19T08:42:18;11.30;82.40
18365;DHT22;9309;52.126;11.616;2023-11-19T08:44:48;11.70;81.60
18365;DHT22;9309;52.126;11.616;2023-11-19T08:47:17;12.20;78.30
18365;DHT22;9309;52.126;11.616;2023-11-19T08:49:44;12.50;76.90
18365;DHT22;9309;52.126;11.616;2023-11-19T08:52:10;12.60;76.70
18365;DHT22;9309;52.126;11.616;2023-11-19T08:54:37;12.80;76.00
18365;DHT22;9309;52.126;11.616;2023-11-19T08:57:04;12.90;75.00
18365;DHT22;9309;52.126;11.616;2023-11-19T08:59:32;12.70;76.00
18365;DHT22;9309;52.126;11.616;2023-11-19T09:01:59;12.70;76.70
18365;DHT22;9309;52.126;11.616;2023-11-19T09:04:27;12.70;76.30
18365;DHT22;9309;52.126;11.616;2023-11-19T09:06:54;12.50;77.30
18365;DHT22;9309;52.126;11.616;2023-11-19T09:09:21;12.50;77.20
18365;DHT22;9309;52.126;11.616;2023-11-19T09:11:47;12.60;77.20
18365;DHT22;9309;52.126;11.616;2023-11-19T09:14:14;13.00;75.70
18365;DHT22;9309;52.126;11.616;2023-11-19T09:16:41;13.40;73.80
18365;DHT22;9309;52.126;11.616;2023-11-19T09:19:07;13.40;72.40
18365;DHT22;9309;52.126;11.616;2023-11-19T09:21:35;13.30;73.10
18365;DHT22;9309;52.126;11.616;2023-11-19T09:24:04;13.70;72.70
18365;DHT22;9309;52.126;11.616;2023-11-19T09:26:32;14.20;70.00
18365;DHT22;9309;52.126;11.616;2023-11-19T09:28:59;14.50;68.60
18365;DHT22;9309;52.126;11.616;2023-11-19T09:31:26;14.70;67.90
18365;DHT22;9309;52.126;11.616;2023-11-19T09:33:52;14.20;68.90
18365;DHT22;9309;52.126;11.616;2023-11-19T09:36:19;13.90;70.30
18365;DHT22;9309;52.126;11.616;2023-11-19T09:38:47;14.00;70.30
18365;DHT22;9309;52.126;11.616;2023-11-19T09:41:14;14.20;69.80
18365;DHT22;9309;52.126;11.616;2023-11-19T09:43:40;14.50;68.20
18365;DHT22;9309;52.126;11.616;2023-11-19T09:46:09;14.30;68.40
18365;DHT22;9309;52.126;11.616;2023-11-19T09:48:37;14.00;68.80
18365;DHT22;9309;52.126;11.616;2023-11-19T09:51:04;13.40;70.50
18365;DHT22;9309;52.126;11.616;2023-11-19T09:53:31;13.10;72.00
18365;DHT22;9309;52.126;11.616;2023-11-19T09:55:59;12.90;73.30
18365;DHT22;9309;52.126;11.616;2023-11-19T09:58:28;12.80;73.40
18365;DHT22;9309;52.126;11.616;2023-11-19T10:00:55;12.80;73.10
18365;DHT22;9309;52.126;11.616;2023-11-19T10:03:20;12.80;73.40
18365;DHT22;9309;52.126;11.616;2023-11-19T10:05:48;12.80;73.40
18365;DHT22;9309;52.126;11.616;2023-11-19T10:08:15;12.80;73.30
18365;DHT22;9309;52.126;11.616;2023-11-19T10:10:42;12.80;73.30
18365;DHT22;9309;52.126;11.616;2023-11-19T10:13:11;12.90;73.30
18365;DHT22;9309;52.126;11.616;2023-11-19T10:15:40;13.00;72.30
18365;DHT22;9309;52.126;11.616;2023-11-19T10:18:06;13.10;71.90
18365;DHT22;9309;52.126;11.616;2023-11-19T10:20:36;13.10;71.40
18365;DHT22;9309;52.126;11.616;2023-11-19T10:23:03;13.00;71.70
18365;DHT22;9309;52.126;11.616;2023-11-19T10:25:29;12.90;72.10
18365;DHT22;9309;52.126;11.616;2023-11-19T10:27:57;12.90;71.80
18365;DHT22;9309;52.126;11.616;2023-11-19T10:30:25;12.80;72.00
18365;DHT22;9309;52.126;11.616;2023-11-19T10:33:02;12.90;72.00
18365;DHT22;9309;52.126;11.616;2023-11-19T10:35:29;12.90;72.40
18365;DHT22;9309;52.126;11.616;2023-11-19T10:37:55;13.10;71.40
18365;DHT22;9309;52.126;11.616;2023-11-19T10:40:22;13.20;70.80
18365;DHT22;9309;52.126;11.616;2023-11-19T10:42:49;13.40;70.40
18365;DHT22;9309;52.126;11.616;2023-11-19T10:45:22;13.40;69.80
18365;DHT22;9309;52.126;11.616;2023-11-19T10:47:50;13.20;69.50
18365;DHT22;9309;52.126;11.616;2023-11-19T10:50:17;13.00;70.10
18365;DHT22;9309;52.126;11.616;2023-11-19T10:52:44;12.80;70.80
18365;DHT22;9309;52.126;11.616;2023-11-19T10:55:13;12.90;70.90
18365;DHT22;9309;52.126;11.616;2023-11-19T10:57:42;13.10;70.50
18365;DHT22;9309;52.126;11.616;2023-11-19T11:00:09;13.50;69.40
18365;DHT22;9309;52.126;11.616;2023-11-19T11:02:39;13.60;68.10
18365;DHT22;9309;52.126;11.616;2023-11-19T11:05:08;13.60;67.10
18365;DHT22;9309;52.126;11.616;2023-11-19T11:07:36;13.70;67.40
18365;DHT22;9309;52.126;11.616;2023-11-19T11:10:03;13.80;66.90
18365;DHT22;9309;52.126;11.616;2023-11-19T11:12:31;13.80;66.90
18365;DHT22;9309;52.126;11.616;2023-11-19T11:14:59;13.80;66.90
18365;DHT22;9309;52.126;11.616;2023-11-19T11:17:26;13.90;67.10
18365;DHT22;9309;52.126;11.616;2023-11-19T11:19:54;13.80;66.80
18365;DHT22;9309;52.126;11.616;2023-11-19T11:22:22;13.80;67.10
18365;DHT22;9309;52.126;11.616;2023-11-19T11:25:02;13.80;66.90
18365;DHT22;9309;52.126;11.616;2023-11-19T11:27:43;13.80;66.90
18365;DHT22;9309;52.126;11.616;2023-11-19T11:30:19;13.90;66.50
18365;DHT22;9309;52.126;11.616;2023-11-19T11:32:49;14.10;66.20
18365;DHT22;9309;52.126;11.616;2023-11-19T11:35:24;13.90;66.10
18365;DHT22;9309;52.126;11.616;2023-11-19T11:38:01;13.80;67.10
18365;DHT22;9309;52.126;11.616;2023-11-19T11:40:29;13.90;66.70
18365;DHT22;9309;52.126;11.616;2023-11-19T11:42:56;14.00;66.50
18365;DHT22;9309;52.126;11.616;2023-11-19T11:45:34;13.90;66.60
18365;DHT22;9309;52.126;11.616;2023-11-19T11:48:05;13.90;65.70
18365;DHT22;9309;52.126;11.616;2023-11-19T11:50:32;14.00;66.40
18365;DHT22;9309;52.126;11.616;2023-11-19T11:53:15;13.80;66.20
18365;DHT22;9309;52.126;11.616;2023-11-19T11:55:51;13.70;66.70
18365;DHT22;9309;52.126;11.616;2023-11-19T11:58:20;13.70;65.80
18365;DHT22;9309;52.126;11.616;2023-11-19T12:00:47;13.80;66.50
18365;DHT22;9309;52.126;11.616;2023-11-19T12:03:14;13.80;66.50
18365;DHT22;9309;52.126;11.616;2023-11-19T12:05:41;13.90;66.40
18365;DHT22;9309;52.126;11.616;2023-11-19T12:08:10;13.90;66.70
18365;DHT22;9309;52.126;11.616;2023-11-19T12:10:44;13.80;66.50
18365;DHT22;9309;52.126;11.616;2023-11-19T12:13:13;13.80;66.00
18365;DHT22;9309;52.126;11.616;2023-11-19T12:18:21;13.80;66.80
18365;DHT22;9309;52.126;11.616;2023-11-19T12:20:49;13.90;66.30
18365;DHT22;9309;52.126;11.616;2023-11-19T12:23:15;14.00;66.10
18365;DHT22;9309;52.126;11.616;2023-11-19T12:25:43;14.00;65.40
18365;DHT22;9309;52.126;11.616;2023-11-19T12:28:11;14.00;65.60
18365;DHT22;9309;52.126;11.616;2023-11-19T12:30:38;14.10;65.20
18365;DHT22;9309;52.126;11.616;2023-11-19T12:33:07;14.00;65.40
18365;DHT22;9309;52.126;11.616;2023-11-19T12:35:34;14.00;66.10
18365;DHT22;9309;52.126;11.616;2023-11-19T12:38:04;13.90;66.10
18365;DHT22;9309;52.126;11.616;2023-11-19T12:40:31;14.00;66.10
18365;DHT22;9309;52.126;11.616;2023-11-19T12:42:59;14.10;65.30
18365;DHT22;9309;52.126;11.616;2023-11-19T12:45:33;14.20;65.60
18365;DHT22;9309;52.126;11.616;2023-11-19T12:48:06;14.20;65.20
18365;DHT22;9309;52.126;11.616;2023-11-19T12:50:50;14.00;65.50
18365;DHT22;9309;52.126;11.616;2023-11-19T12:53:16;13.80;66.30
18365;DHT22;9309;52.126;11.616;2023-11-19T12:55:43;13.90;66.80
18365;DHT22;9309;52.126;11.616;2023-11-19T12:58:11;14.10;65.70
18365;DHT22;9309;52.126;11.616;2023-11-19T13:00:58;14.20;65.50
18365;DHT22;9309;52.126;11.616;2023-11-19T13:03:28;14.10;65.40
18365;DHT22;9309;52.126;11.616;2023-11-19T13:06:00;14.00;65.60
18365;DHT22;9309;52.126;11.616;2023-11-19T13:08:27;13.90;66.10
18365;DHT22;9309;52.126;11.616;2023-11-19T13:10:54;13.80;66.60
18365;DHT22;9309;52.126;11.616;2023-11-19T13:13:21;13.70;66.60
18365;DHT22;9309;52.126;11.616;2023-11-19T13:15:48;13.70;66.70
18365;DHT22;9309;52.126;11.616;2023-11-19T13:18:16;13.90;66.30
18365;DHT22;9309;52.126;11.616;2023-11-19T13:20:42;13.80;66.40
18365;DHT22;9309;52.126;11.616;2023-11-19T13:23:09;13.80;67.00
18365;DHT22;9309;52.126;11.616;2023-11-19T13:25:36;13.60;66.60
18365;DHT22;9309;52.126;11.616;2023-11-19T13:28:03;13.50;67.00
18365;DHT22;9309;52.126;11.616;2023-11-19T13:30:32;13.50;67.60
18365;DHT22;9309;52.126;11.616;2023-11-19T13:32:59;13.50;66.90
18365;DHT22;9309;52.126;11.616;2023-11-19T13:35:26;13.50;67.20
18365;DHT22;9309;52.126;11.616;2023-11-19T13:37:53;13.60;67.00
18365;DHT22;9309;52.126;11.616;2023-11-19T13:40:19;13.60;67.00
18365;DHT22;9309;52.126;11.616;2023-11-19T13:42:47;13.60;67.20
18365;DHT22;9309;52.126;11.616;2023-11-19T13:45:14;13.60;67.30
18365;DHT22;9309;52.126;11.616;2023-11-19T13:47:44;13.60;67.40
18365;DHT22;9309;52.126;11.616;2023-11-19T13:50:12;13.60;67.30
18365;DHT22;9309;52.126;11.616;2023-11-19T13:52:39;13.40;67.50
18365;DHT22;9309;52.126;11.616;2023-11-19T13:55:06;13.30;67.90
18365;DHT22;9309;52.126;11.616;2023-11-19T13:57:33;13.20;67.80
18365;DHT22;9309;52.126;11.616;2023-11-19T14:00:00;13.10;67.80
18365;DHT22;9309;52.126;11.616;2023-11-19T14:02:34;13.10;68.10
18365;DHT22;9309;52.126;11.616;2023-11-19T14:05:03;13.10;67.80
18365;DHT22;9309;52.126;11.616;2023-11-19T14:07:31;13.00;68.00
18365;DHT22;9309;52.126;11.616;2023-11-19T14:09:57;13.00;68.10
18365;DHT22;9309;52.126;11.616;2023-11-19T14:12:24;13.00;68.20
18365;DHT22;9309;52.126;11.616;2023-11-19T14:14:50;12.90;68.20
18365;DHT22;9309;52.126;11.616;2023-11-19T14:17:17;12.90;68.60
18365;DHT22;9309;52.126;11.616;2023-11-19T14:19:44;12.90;68.40
18365;DHT22;9309;52.126;11.616;2023-11-19T14:22:12;12.90;68.60
18365;DHT22;9309;52.126;11.616;2023-11-19T14:24:38;12.90;68.30
18365;DHT22;9309;52.126;11.616;2023-11-19T14:27:06;12.80;68.70
18365;DHT22;9309;52.126;11.616;2023-11-19T14:29:32;12.80;68.50
18365;DHT22;9309;52.126;11.616;2023-11-19T14:31:59;12.80;68.50
18365;DHT22;9309;52.126;11.616;2023-11-19T14:34:26;12.80;68.60
18365;DHT22;9309;52.126;11.616;2023-11-19T14:36:53;12.70;69.30
18365;DHT22;9309;52.126;11.616;2023-11-19T14:39:21;12.60;69.60
18365;DHT22;9309;52.126;11.616;2023-11-19T14:41:48;12.60;69.60
18365;DHT22;9309;52.126;11.616;2023-11-19T14:44:14;12.60;69.70
18365;DHT22;9309;52.126;11.616;2023-11-19T14:46:41;12.60;69.80
18365;DHT22;9309;52.126;11.616;2023-11-19T14:49:08;12.50;69.70
18365;DHT22;9309;52.126;11.616;2023-11-19T14:51:35;12.50;69.90
18365;DHT22;9309;52.126;11.616;2023-11-19T14:54:02;12.50;70.10
18365;DHT22;9309;52.126;11.616;2023-11-19T14:56:29;12.40;70.30
18365;DHT22;9309;52.126;11.616;2023-11-19T14:58:56;12.40;70.50
18365;DHT22;9309;52.126;11.616;2023-11-19T15:01:24;12.20;71.20
18365;DHT22;9309;52.126;11.616;2023-11-19T15:03:50;12.20;71.00
18365;DHT22;9309;52.126;11.616;2023-11-19T15:06:17;12.30;71.00
18365;DHT22;9309;52.126;11.616;2023-11-19T15:08:44;12.30;71.00
18365;DHT22;9309;52.126;11.616;2023-11-19T15:11:11;12.30;71.30
18365;DHT22;9309;52.126;11.616;2023-11-19T15:13:39;12.20;71.50
18365;DHT22;9309;52.126;11.616;2023-11-19T15:16:07;12.30;71.50
18365;DHT22;9309;52.126;11.616;2023-11-19T15:18:36;12.30;71.60
18365;DHT22;9309;52.126;11.616;2023-11-19T15:21:02;12.20;71.80
18365;DHT22;9309;52.126;11.616;2023-11-19T15:23:29;12.20;72.50
18365;DHT22;9309;52.126;11.616;2023-11-19T15:25:56;12.10;72.50
18365;DHT22;9309;52.126;11.616;2023-11-19T15:28:22;12.10;72.60
18365;DHT22;9309;52.126;11.616;2023-11-19T15:30:50;12.10;72.90
18365;DHT22;9309;52.126;11.616;2023-11-19T15:33:17;12.10;73.00
18365;DHT22;9309;52.126;11.616;2023-11-19T15:35:43;12.10;72.80
18365;DHT22;9309;52.126;11.616;2023-11-19T15:38:11;12.10;73.10
18365;DHT22;9309;52.126;11.616;2023-11-19T15:40:37;11.90;73.70
18365;DHT22;9309;52.126;11.616;2023-11-19T15:43:04;12.00;73.80